Aérodrome :
LOGIN :

S'inscrire | Disclaimer

   EN    FR    IT 

 










Légende :    VFR   VFR Marginal   IFR   IFR Intensif   IFR Très Intensif
Visi : 
Plafond : 
>= 8 km
>= 3000ft
5 à 8 km
1000 à 3000 ft
1500m à 5 km
500 à 1000 ft
800 à 1500m
200 à 500 ft
< 800m
< 200 ft
Symboles :   Orages  Brouillard  Fortes neiges  Fortes précipitations  Vent > 20 kt
SIGMETs :   Divers  Orages  Givrage  Turbulence  Onde Orograph.  Cendres Volcan.






- Altitude de l'aérodrome : 614 ft
- Code IATA : CRL


EBCI - Charleroi

DERNIER METAR :
  • 102120Z 01006KT CAVOK 25/18 Q1014 NOSIG

METARs EXPIRÉS :
  • 102050Z 35005KT CAVOK 24/19 Q1014 NOSIG
  • 102020Z 35004KT 9999 SCT060CB 25/19 Q1014 RETS RETSRA NOSIG
  • 101950Z VRB02KT 9999 SCT060CB 25/20 Q1014 RETS RETSRA NOSIG
  • 101920Z VRB03KT 9999 -TSRA SCT060CB 26/19 Q1014 BECMG NSW

TAF TAF EBCI
Valide du 10 à 18h jusqu'au 12 à 00h UTC


101700Z 1018/1124 VRB03KT CAVOK
PROB30
TEMPO 1018/1021 VRB18G30KT 3500 TSRA
PROB30
TEMPO 1112/1120 VRB18G30KT 3500 TSRA



MET'MAP, la Météo Aéronautique d'un coup d'oeil ! - Copyright ORBIFLY Décembre 2007 - Disclaimer

ORBIFLY MET'MAP TEAM :

Programmation & Développement : Alexandra Zaïnal
Sur une idée originale de : Baudouin d'Aumeries
Assistance à la programmation : Marc-Olivier Méhu
Soutien technique & logistique : Manuel Goepfert

Contact : metmap@orbifly.com




SOURCES & CREDITS :

   NOAA